Cincinnati, Ohio
Traffic Map
Current Weather Conditions
Cincinnati, Ohio
Overcast
Overcast
46°
Feels Like: 43°
Wind Chill: 43° Ceiling: 2200
Heat Index: 46° Visibility: 10mi
Dew Point: 39° Wind: 6mph
Humidity: 76% Direction: 10° (N)
Pressure: 30.24in Gusts: 0mph
Raw Report DataKLUK 220953Z AUTO 01005KT 10SM OVC022 08/04 A3024 RMK AO2 SLP240 T00780039
Traffic Incident Summary
Active as of:
Severity:
Category:
InformationThere was an issue retrieving the traffic information for this location. Please try a different location or try again shortly.
Advertisements
Track Severe Weather on mobile